sensor_id;sensor_type;location;lat;lon;timestamp;temperature;humidity
4677;DHT22;2352;48.180;11.478;2022-09-17T00:02:58;14.30;95.70
4677;DHT22;2352;48.180;11.478;2022-09-17T00:06:03;14.30;95.90
4677;DHT22;2352;48.180;11.478;2022-09-17T00:09:07;14.20;95.40
4677;DHT22;2352;48.180;11.478;2022-09-17T00:12:12;14.20;96.10
4677;DHT22;2352;48.180;11.478;2022-09-17T00:15:15;14.20;96.40
4677;DHT22;2352;48.180;11.478;2022-09-17T00:18:18;14.20;96.30
4677;DHT22;2352;48.180;11.478;2022-09-17T00:21:22;14.20;96.30
4677;DHT22;2352;48.180;11.478;2022-09-17T00:24:25;14.20;96.50
4677;DHT22;2352;48.180;11.478;2022-09-17T00:27:29;14.20;96.10
4677;DHT22;2352;48.180;11.478;2022-09-17T00:30:32;14.20;96.00
4677;DHT22;2352;48.180;11.478;2022-09-17T00:33:35;14.20;95.90
4677;DHT22;2352;48.180;11.478;2022-09-17T00:36:38;14.10;96.00
4677;DHT22;2352;48.180;11.478;2022-09-17T00:39:41;14.10;96.00
4677;DHT22;2352;48.180;11.478;2022-09-17T00:42:46;14.20;95.90
4677;DHT22;2352;48.180;11.478;2022-09-17T00:45:49;14.20;95.50
4677;DHT22;2352;48.180;11.478;2022-09-17T00:48:54;14.20;95.70
4677;DHT22;2352;48.180;11.478;2022-09-17T00:52:00;14.20;95.40
4677;DHT22;2352;48.180;11.478;2022-09-17T00:55:13;14.20;95.30
4677;DHT22;2352;48.180;11.478;2022-09-17T00:58:21;14.10;95.30
4677;DHT22;2352;48.180;11.478;2022-09-17T01:01:24;14.10;95.30
4677;DHT22;2352;48.180;11.478;2022-09-17T01:04:27;14.10;95.50
4677;DHT22;2352;48.180;11.478;2022-09-17T01:07:53;14.10;95.30
4677;DHT22;2352;48.180;11.478;2022-09-17T01:11:11;14.10;95.30
4677;DHT22;2352;48.180;11.478;2022-09-17T01:14:30;14.00;95.20
4677;DHT22;2352;48.180;11.478;2022-09-17T01:17:42;14.10;95.60
4677;DHT22;2352;48.180;11.478;2022-09-17T01:24:44;14.20;95.50
4677;DHT22;2352;48.180;11.478;2022-09-17T01:28:21;14.20;95.20
4677;DHT22;2352;48.180;11.478;2022-09-17T01:31:36;14.10;95.30
4677;DHT22;2352;48.180;11.478;2022-09-17T01:34:47;14.10;95.50
4677;DHT22;2352;48.180;11.478;2022-09-17T01:38:00;14.10;95.50
4677;DHT22;2352;48.180;11.478;2022-09-17T01:41:07;14.20;95.10
4677;DHT22;2352;48.180;11.478;2022-09-17T01:44:19;14.10;95.20
4677;DHT22;2352;48.180;11.478;2022-09-17T01:47:29;14.10;94.50
4677;DHT22;2352;48.180;11.478;2022-09-17T01:50:38;14.00;94.90
4677;DHT22;2352;48.180;11.478;2022-09-17T01:53:44;14.00;95.40
4677;DHT22;2352;48.180;11.478;2022-09-17T01:56:55;13.90;95.30
4677;DHT22;2352;48.180;11.478;2022-09-17T02:00:03;14.00;95.00
4677;DHT22;2352;48.180;11.478;2022-09-17T02:03:11;13.90;94.80
4677;DHT22;2352;48.180;11.478;2022-09-17T02:06:18;13.90;95.10
4677;DHT22;2352;48.180;11.478;2022-09-17T02:09:26;14.00;94.80
4677;DHT22;2352;48.180;11.478;2022-09-17T02:12:36;14.10;94.70
4677;DHT22;2352;48.180;11.478;2022-09-17T02:15:41;14.00;94.80
4677;DHT22;2352;48.180;11.478;2022-09-17T02:18:49;13.90;95.00
4677;DHT22;2352;48.180;11.478;2022-09-17T02:22:01;14.00;94.70
4677;DHT22;2352;48.180;11.478;2022-09-17T02:25:07;13.90;94.40
4677;DHT22;2352;48.180;11.478;2022-09-17T02:28:16;13.90;94.70
4677;DHT22;2352;48.180;11.478;2022-09-17T02:31:21;14.00;94.50
4677;DHT22;2352;48.180;11.478;2022-09-17T02:34:27;14.00;94.40
4677;DHT22;2352;48.180;11.478;2022-09-17T02:37:30;13.90;94.60
4677;DHT22;2352;48.180;11.478;2022-09-17T02:40:36;14.00;94.30
4677;DHT22;2352;48.180;11.478;2022-09-17T02:43:50;14.00;93.90
4677;DHT22;2352;48.180;11.478;2022-09-17T02:47:09;13.80;93.90
4677;DHT22;2352;48.180;11.478;2022-09-17T02:50:26;13.80;93.70
4677;DHT22;2352;48.180;11.478;2022-09-17T02:53:37;13.70;93.90
4677;DHT22;2352;48.180;11.478;2022-09-17T02:56:45;13.70;94.00
4677;DHT22;2352;48.180;11.478;2022-09-17T03:00:01;13.70;94.00
4677;DHT22;2352;48.180;11.478;2022-09-17T03:03:09;13.70;93.80
4677;DHT22;2352;48.180;11.478;2022-09-17T03:06:16;13.60;93.70
4677;DHT22;2352;48.180;11.478;2022-09-17T03:09:19;13.60;93.90
4677;DHT22;2352;48.180;11.478;2022-09-17T03:12:22;13.60;93.30
4677;DHT22;2352;48.180;11.478;2022-09-17T03:15:25;13.60;93.40
4677;DHT22;2352;48.180;11.478;2022-09-17T03:18:28;13.50;93.30
4677;DHT22;2352;48.180;11.478;2022-09-17T03:21:33;13.60;93.30
4677;DHT22;2352;48.180;11.478;2022-09-17T03:24:35;13.60;93.40
4677;DHT22;2352;48.180;11.478;2022-09-17T03:27:38;13.50;93.50
4677;DHT22;2352;48.180;11.478;2022-09-17T03:30:42;13.50;93.60
4677;DHT22;2352;48.180;11.478;2022-09-17T03:33:45;13.50;93.80
4677;DHT22;2352;48.180;11.478;2022-09-17T03:36:49;13.40;93.50
4677;DHT22;2352;48.180;11.478;2022-09-17T03:39:52;13.40;93.70
4677;DHT22;2352;48.180;11.478;2022-09-17T03:42:55;13.50;93.90
4677;DHT22;2352;48.180;11.478;2022-09-17T03:45:58;13.50;93.50
4677;DHT22;2352;48.180;11.478;2022-09-17T03:49:02;13.50;93.60
4677;DHT22;2352;48.180;11.478;2022-09-17T03:52:06;13.50;93.70
4677;DHT22;2352;48.180;11.478;2022-09-17T03:55:09;13.40;93.60
4677;DHT22;2352;48.180;11.478;2022-09-17T03:58:12;13.50;93.90
4677;DHT22;2352;48.180;11.478;2022-09-17T04:01:15;13.50;93.60
4677;DHT22;2352;48.180;11.478;2022-09-17T04:04:18;13.50;93.40
4677;DHT22;2352;48.180;11.478;2022-09-17T04:07:22;13.40;93.40
4677;DHT22;2352;48.180;11.478;2022-09-17T04:10:25;13.40;93.60
4677;DHT22;2352;48.180;11.478;2022-09-17T04:13:29;13.40;93.60
4677;DHT22;2352;48.180;11.478;2022-09-17T04:16:32;13.30;93.70
4677;DHT22;2352;48.180;11.478;2022-09-17T04:19:35;13.30;93.50
4677;DHT22;2352;48.180;11.478;2022-09-17T04:22:40;13.30;93.70
4677;DHT22;2352;48.180;11.478;2022-09-17T04:25:43;13.30;93.70
4677;DHT22;2352;48.180;11.478;2022-09-17T04:28:46;13.30;94.30
4677;DHT22;2352;48.180;11.478;2022-09-17T04:31:49;13.30;93.90
4677;DHT22;2352;48.180;11.478;2022-09-17T04:34:52;13.30;94.00
4677;DHT22;2352;48.180;11.478;2022-09-17T04:37:56;13.20;94.00
4677;DHT22;2352;48.180;11.478;2022-09-17T04:41:00;13.30;94.20
4677;DHT22;2352;48.180;11.478;2022-09-17T04:44:03;13.30;94.20
4677;DHT22;2352;48.180;11.478;2022-09-17T04:47:06;13.30;94.10
4677;DHT22;2352;48.180;11.478;2022-09-17T04:50:09;13.30;94.00
4677;DHT22;2352;48.180;11.478;2022-09-17T04:53:13;13.30;94.10
4677;DHT22;2352;48.180;11.478;2022-09-17T04:56:16;13.10;94.70
4677;DHT22;2352;48.180;11.478;2022-09-17T04:59:19;13.20;94.10
4677;DHT22;2352;48.180;11.478;2022-09-17T05:02:22;13.20;94.20
4677;DHT22;2352;48.180;11.478;2022-09-17T05:05:25;13.10;94.00
4677;DHT22;2352;48.180;11.478;2022-09-17T05:08:29;13.20;94.50
4677;DHT22;2352;48.180;11.478;2022-09-17T05:11:32;13.10;93.70
4677;DHT22;2352;48.180;11.478;2022-09-17T05:14:35;13.00;94.00
4677;DHT22;2352;48.180;11.478;2022-09-17T05:17:38;13.00;94.00
4677;DHT22;2352;48.180;11.478;2022-09-17T05:20:42;13.00;94.00
4677;DHT22;2352;48.180;11.478;2022-09-17T05:23:46;13.00;94.50
4677;DHT22;2352;48.180;11.478;2022-09-17T05:26:49;13.00;94.20
4677;DHT22;2352;48.180;11.478;2022-09-17T05:29:52;13.10;94.70
4677;DHT22;2352;48.180;11.478;2022-09-17T05:32:59;13.10;94.60
4677;DHT22;2352;48.180;11.478;2022-09-17T05:36:02;13.10;94.30
4677;DHT22;2352;48.180;11.478;2022-09-17T05:39:07;13.00;94.10
4677;DHT22;2352;48.180;11.478;2022-09-17T05:42:09;13.00;94.50
4677;DHT22;2352;48.180;11.478;2022-09-17T05:45:12;13.00;94.00
4677;DHT22;2352;48.180;11.478;2022-09-17T05:48:15;13.00;94.20
4677;DHT22;2352;48.180;11.478;2022-09-17T05:51:18;13.00;94.00
4677;DHT22;2352;48.180;11.478;2022-09-17T05:54:22;13.00;94.30
4677;DHT22;2352;48.180;11.478;2022-09-17T05:57:27;13.00;93.80
4677;DHT22;2352;48.180;11.478;2022-09-17T06:00:30;13.00;94.10
4677;DHT22;2352;48.180;11.478;2022-09-17T06:03:33;13.00;94.30
4677;DHT22;2352;48.180;11.478;2022-09-17T06:06:36;13.10;93.80
4677;DHT22;2352;48.180;11.478;2022-09-17T06:09:41;13.10;93.50
4677;DHT22;2352;48.180;11.478;2022-09-17T06:12:43;13.10;93.90
4677;DHT22;2352;48.180;11.478;2022-09-17T06:15:50;13.10;93.80
4677;DHT22;2352;48.180;11.478;2022-09-17T06:18:54;13.10;93.60
4677;DHT22;2352;48.180;11.478;2022-09-17T06:21:57;13.20;93.70
4677;DHT22;2352;48.180;11.478;2022-09-17T06:25:01;13.20;93.60
4677;DHT22;2352;48.180;11.478;2022-09-17T06:28:04;13.20;93.50
4677;DHT22;2352;48.180;11.478;2022-09-17T06:31:08;13.20;93.50
4677;DHT22;2352;48.180;11.478;2022-09-17T06:34:12;13.10;93.50
4677;DHT22;2352;48.180;11.478;2022-09-17T06:37:15;13.10;93.60
4677;DHT22;2352;48.180;11.478;2022-09-17T06:40:19;13.10;93.40
4677;DHT22;2352;48.180;11.478;2022-09-17T06:46:27;13.10;93.40
4677;DHT22;2352;48.180;11.478;2022-09-17T06:49:30;13.10;94.00
4677;DHT22;2352;48.180;11.478;2022-09-17T06:52:33;13.00;93.80
4677;DHT22;2352;48.180;11.478;2022-09-17T06:55:37;12.90;93.50
4677;DHT22;2352;48.180;11.478;2022-09-17T06:58:40;12.90;93.80
4677;DHT22;2352;48.180;11.478;2022-09-17T07:01:44;12.90;93.80
4677;DHT22;2352;48.180;11.478;2022-09-17T07:04:47;12.90;93.80
4677;DHT22;2352;48.180;11.478;2022-09-17T07:07:51;12.90;93.90
4677;DHT22;2352;48.180;11.478;2022-09-17T07:10:56;13.00;94.10
4677;DHT22;2352;48.180;11.478;2022-09-17T07:13:59;13.10;93.90
4677;DHT22;2352;48.180;11.478;2022-09-17T07:17:02;13.10;94.00
4677;DHT22;2352;48.180;11.478;2022-09-17T07:20:06;13.10;93.60
4677;DHT22;2352;48.180;11.478;2022-09-17T07:23:09;13.10;93.60
4677;DHT22;2352;48.180;11.478;2022-09-17T07:26:14;13.00;93.30
4677;DHT22;2352;48.180;11.478;2022-09-17T07:32:22;13.20;93.10
4677;DHT22;2352;48.180;11.478;2022-09-17T07:35:25;13.30;92.60
4677;DHT22;2352;48.180;11.478;2022-09-17T07:38:29;13.20;91.20
4677;DHT22;2352;48.180;11.478;2022-09-17T07:41:33;13.20;92.30
4677;DHT22;2352;48.180;11.478;2022-09-17T07:44:36;13.30;92.30
4677;DHT22;2352;48.180;11.478;2022-09-17T07:47:39;13.40;91.70
4677;DHT22;2352;48.180;11.478;2022-09-17T07:50:42;13.40;91.10
4677;DHT22;2352;48.180;11.478;2022-09-17T07:53:46;13.30;91.50
4677;DHT22;2352;48.180;11.478;2022-09-17T07:56:52;13.50;92.30
4677;DHT22;2352;48.180;11.478;2022-09-17T07:59:55;13.60;92.00
4677;DHT22;2352;48.180;11.478;2022-09-17T08:02:58;13.60;92.10
4677;DHT22;2352;48.180;11.478;2022-09-17T08:06:02;13.70;91.40
4677;DHT22;2352;48.180;11.478;2022-09-17T08:09:05;13.80;91.40
4677;DHT22;2352;48.180;11.478;2022-09-17T08:12:12;13.90;91.30
4677;DHT22;2352;48.180;11.478;2022-09-17T08:15:15;13.90;90.00
4677;DHT22;2352;48.180;11.478;2022-09-17T08:18:18;13.90;89.10
4677;DHT22;2352;48.180;11.478;2022-09-17T08:21:22;14.00;90.40
4677;DHT22;2352;48.180;11.478;2022-09-17T08:24:26;14.10;87.40
4677;DHT22;2352;48.180;11.478;2022-09-17T08:27:30;14.10;86.60
4677;DHT22;2352;48.180;11.478;2022-09-17T08:30:33;14.10;89.60
4677;DHT22;2352;48.180;11.478;2022-09-17T08:33:37;14.20;89.30
4677;DHT22;2352;48.180;11.478;2022-09-17T08:36:41;14.20;88.00
4677;DHT22;2352;48.180;11.478;2022-09-17T08:39:44;14.20;86.30
4677;DHT22;2352;48.180;11.478;2022-09-17T08:42:51;14.10;88.10
4677;DHT22;2352;48.180;11.478;2022-09-17T08:45:58;14.10;89.00
4677;DHT22;2352;48.180;11.478;2022-09-17T08:49:06;14.10;87.80
4677;DHT22;2352;48.180;11.478;2022-09-17T08:56:07;13.90;84.20
4677;DHT22;2352;48.180;11.478;2022-09-17T08:59:23;13.70;86.60
4677;DHT22;2352;48.180;11.478;2022-09-17T09:02:39;13.80;86.40
4677;DHT22;2352;48.180;11.478;2022-09-17T09:05:45;13.60;85.10
4677;DHT22;2352;48.180;11.478;2022-09-17T09:08:53;13.60;84.80
4677;DHT22;2352;48.180;11.478;2022-09-17T09:12:01;13.60;86.30
4677;DHT22;2352;48.180;11.478;2022-09-17T09:18:35;13.70;85.90
4677;DHT22;2352;48.180;11.478;2022-09-17T09:21:45;13.70;85.20
4677;DHT22;2352;48.180;11.478;2022-09-17T09:24:58;13.80;86.30
4677;DHT22;2352;48.180;11.478;2022-09-17T09:28:14;13.70;84.00
4677;DHT22;2352;48.180;11.478;2022-09-17T09:31:30;13.60;85.70
4677;DHT22;2352;48.180;11.478;2022-09-17T09:34:37;13.70;86.10
4677;DHT22;2352;48.180;11.478;2022-09-17T09:37:43;13.70;84.80
4677;DHT22;2352;48.180;11.478;2022-09-17T09:40:52;13.60;85.50
4677;DHT22;2352;48.180;11.478;2022-09-17T09:44:00;13.70;86.90
4677;DHT22;2352;48.180;11.478;2022-09-17T09:47:29;13.80;85.60
4677;DHT22;2352;48.180;11.478;2022-09-17T09:50:42;13.80;86.00
4677;DHT22;2352;48.180;11.478;2022-09-17T09:54:23;13.80;86.50
4677;DHT22;2352;48.180;11.478;2022-09-17T09:57:38;13.70;87.40
4677;DHT22;2352;48.180;11.478;2022-09-17T10:00:44;13.70;89.90
4677;DHT22;2352;48.180;11.478;2022-09-17T10:03:50;13.80;91.00
4677;DHT22;2352;48.180;11.478;2022-09-17T10:07:00;13.70;91.00
4677;DHT22;2352;48.180;11.478;2022-09-17T10:10:07;13.70;91.40
4677;DHT22;2352;48.180;11.478;2022-09-17T10:13:11;13.80;91.70
4677;DHT22;2352;48.180;11.478;2022-09-17T10:16:17;13.90;91.90
4677;DHT22;2352;48.180;11.478;2022-09-17T10:19:22;13.90;92.40
4677;DHT22;2352;48.180;11.478;2022-09-17T10:22:29;13.90;92.50
4677;DHT22;2352;48.180;11.478;2022-09-17T10:25:33;13.90;93.90
4677;DHT22;2352;48.180;11.478;2022-09-17T10:28:46;13.90;94.20
4677;DHT22;2352;48.180;11.478;2022-09-17T10:31:53;13.90;94.30
4677;DHT22;2352;48.180;11.478;2022-09-17T10:35:00;13.80;93.70
4677;DHT22;2352;48.180;11.478;2022-09-17T10:38:24;13.70;93.80
4677;DHT22;2352;48.180;11.478;2022-09-17T10:41:28;13.50;93.90
4677;DHT22;2352;48.180;11.478;2022-09-17T10:44:32;13.40;93.80
4677;DHT22;2352;48.180;11.478;2022-09-17T10:47:39;13.40;94.50
4677;DHT22;2352;48.180;11.478;2022-09-17T10:50:49;13.40;94.40
4677;DHT22;2352;48.180;11.478;2022-09-17T10:57:30;13.50;95.40
4677;DHT22;2352;48.180;11.478;2022-09-17T11:00:43;13.40;95.70
4677;DHT22;2352;48.180;11.478;2022-09-17T11:03:54;13.40;95.70
4677;DHT22;2352;48.180;11.478;2022-09-17T11:07:15;13.50;95.90
4677;DHT22;2352;48.180;11.478;2022-09-17T11:10:29;13.60;96.20
4677;DHT22;2352;48.180;11.478;2022-09-17T11:13:40;13.60;95.60
4677;DHT22;2352;48.180;11.478;2022-09-17T11:16:53;13.50;95.40
4677;DHT22;2352;48.180;11.478;2022-09-17T11:20:04;13.70;95.60
4677;DHT22;2352;48.180;11.478;2022-09-17T11:23:26;13.70;96.10
4677;DHT22;2352;48.180;11.478;2022-09-17T11:26:36;13.60;95.70
4677;DHT22;2352;48.180;11.478;2022-09-17T11:30:09;13.50;95.70
4677;DHT22;2352;48.180;11.478;2022-09-17T11:33:31;13.60;95.90
4677;DHT22;2352;48.180;11.478;2022-09-17T11:36:45;13.50;95.90
4677;DHT22;2352;48.180;11.478;2022-09-17T11:39:55;13.60;96.80
4677;DHT22;2352;48.180;11.478;2022-09-17T11:43:02;13.60;95.20
4677;DHT22;2352;48.180;11.478;2022-09-17T11:46:09;13.80;96.00
4677;DHT22;2352;48.180;11.478;2022-09-17T11:49:26;13.90;95.40
4677;DHT22;2352;48.180;11.478;2022-09-17T11:52:37;13.90;94.90
4677;DHT22;2352;48.180;11.478;2022-09-17T11:55:46;13.90;94.80
4677;DHT22;2352;48.180;11.478;2022-09-17T11:58:56;13.90;95.70
4677;DHT22;2352;48.180;11.478;2022-09-17T12:02:03;14.00;95.00
4677;DHT22;2352;48.180;11.478;2022-09-17T12:05:13;13.90;94.70
4677;DHT22;2352;48.180;11.478;2022-09-17T12:08:21;13.90;94.50
4677;DHT22;2352;48.180;11.478;2022-09-17T12:11:32;13.80;94.40
4677;DHT22;2352;48.180;11.478;2022-09-17T12:14:43;13.80;95.30
4677;DHT22;2352;48.180;11.478;2022-09-17T12:17:53;13.80;94.70
4677;DHT22;2352;48.180;11.478;2022-09-17T12:21:20;13.90;95.00
4677;DHT22;2352;48.180;11.478;2022-09-17T12:24:26;16.00;94.30
4677;DHT22;2352;48.180;11.478;2022-09-17T12:27:36;14.00;95.90
4677;DHT22;2352;48.180;11.478;2022-09-17T12:30:42;14.10;95.10
4677;DHT22;2352;48.180;11.478;2022-09-17T12:33:51;14.20;96.10
4677;DHT22;2352;48.180;11.478;2022-09-17T12:37:03;14.40;95.10
4677;DHT22;2352;48.180;11.478;2022-09-17T12:40:17;14.50;93.60
4677;DHT22;2352;48.180;11.478;2022-09-17T12:43:37;14.60;93.50
4677;DHT22;2352;48.180;11.478;2022-09-17T12:46:52;14.60;93.60
4677;DHT22;2352;48.180;11.478;2022-09-17T12:50:09;14.70;93.30
4677;DHT22;2352;48.180;11.478;2022-09-17T12:53:22;14.80;93.10
4677;DHT22;2352;48.180;11.478;2022-09-17T12:56:37;14.80;92.10
4677;DHT22;2352;48.180;11.478;2022-09-17T12:59:48;14.70;92.20
4677;DHT22;2352;48.180;11.478;2022-09-17T13:03:01;14.60;92.20
4677;DHT22;2352;48.180;11.478;2022-09-17T13:06:38;14.70;92.70
4677;DHT22;2352;48.180;11.478;2022-09-17T13:13:28;14.90;92.90
4677;DHT22;2352;48.180;11.478;2022-09-17T13:16:38;15.00;92.10
4677;DHT22;2352;48.180;11.478;2022-09-17T13:19:48;15.10;92.50
4677;DHT22;2352;48.180;11.478;2022-09-17T13:22:55;15.00;92.20
4677;DHT22;2352;48.180;11.478;2022-09-17T13:26:00;15.00;92.70
4677;DHT22;2352;48.180;11.478;2022-09-17T13:29:05;15.00;91.90
4677;DHT22;2352;48.180;11.478;2022-09-17T13:32:40;14.80;92.50
4677;DHT22;2352;48.180;11.478;2022-09-17T13:35:48;14.90;91.90
4677;DHT22;2352;48.180;11.478;2022-09-17T13:38:51;14.70;92.00
4677;DHT22;2352;48.180;11.478;2022-09-17T13:42:00;14.60;92.10
4677;DHT22;2352;48.180;11.478;2022-09-17T13:45:07;14.30;92.60
4677;DHT22;2352;48.180;11.478;2022-09-17T13:48:18;14.50;94.20
4677;DHT22;2352;48.180;11.478;2022-09-17T13:51:56;14.40;93.30
4677;DHT22;2352;48.180;11.478;2022-09-17T13:54:59;14.40;93.20
4677;DHT22;2352;48.180;11.478;2022-09-17T13:58:04;14.70;94.60
4677;DHT22;2352;48.180;11.478;2022-09-17T14:01:11;14.90;94.10
4677;DHT22;2352;48.180;11.478;2022-09-17T14:04:33;15.30;93.20
4677;DHT22;2352;48.180;11.478;2022-09-17T14:07:44;15.50;90.70
4677;DHT22;2352;48.180;11.478;2022-09-17T14:10:49;15.90;92.30
4677;DHT22;2352;48.180;11.478;2022-09-17T14:13:54;16.30;92.00
4677;DHT22;2352;48.180;11.478;2022-09-17T14:16:57;16.30;89.30
4677;DHT22;2352;48.180;11.478;2022-09-17T14:20:02;16.40;88.10
4677;DHT22;2352;48.180;11.478;2022-09-17T14:23:09;16.30;83.00
4677;DHT22;2352;48.180;11.478;2022-09-17T14:26:23;16.20;84.40
4677;DHT22;2352;48.180;11.478;2022-09-17T14:29:39;16.10;84.40
4677;DHT22;2352;48.180;11.478;2022-09-17T14:32:53;16.00;83.60
4677;DHT22;2352;48.180;11.478;2022-09-17T14:36:07;15.90;81.90
4677;DHT22;2352;48.180;11.478;2022-09-17T14:39:18;15.80;83.40
4677;DHT22;2352;48.180;11.478;2022-09-17T14:42:25;15.80;83.90
4677;DHT22;2352;48.180;11.478;2022-09-17T14:45:32;15.70;84.10
4677;DHT22;2352;48.180;11.478;2022-09-17T14:48:38;15.70;86.10
4677;DHT22;2352;48.180;11.478;2022-09-17T14:51:42;15.40;84.50
4677;DHT22;2352;48.180;11.478;2022-09-17T14:54:46;15.40;84.30
4677;DHT22;2352;48.180;11.478;2022-09-17T14:57:51;15.50;83.10
4677;DHT22;2352;48.180;11.478;2022-09-17T15:00:54;15.40;82.70
4677;DHT22;2352;48.180;11.478;2022-09-17T15:04:09;15.30;81.50
4677;DHT22;2352;48.180;11.478;2022-09-17T15:07:23;15.00;83.40
4677;DHT22;2352;48.180;11.478;2022-09-17T15:10:26;15.10;85.30
4677;DHT22;2352;48.180;11.478;2022-09-17T15:13:31;14.90;83.40
4677;DHT22;2352;48.180;11.478;2022-09-17T15:16:36;14.70;83.90
4677;DHT22;2352;48.180;11.478;2022-09-17T15:19:41;14.60;84.10
4677;DHT22;2352;48.180;11.478;2022-09-17T15:22:52;14.30;85.60
4677;DHT22;2352;48.180;11.478;2022-09-17T15:25:57;14.30;85.40
4677;DHT22;2352;48.180;11.478;2022-09-17T15:29:04;14.30;84.70
4677;DHT22;2352;48.180;11.478;2022-09-17T15:32:09;14.30;85.30
4677;DHT22;2352;48.180;11.478;2022-09-17T15:35:21;14.40;86.10
4677;DHT22;2352;48.180;11.478;2022-09-17T15:38:27;14.40;85.70
4677;DHT22;2352;48.180;11.478;2022-09-17T15:41:32;14.30;82.70
4677;DHT22;2352;48.180;11.478;2022-09-17T15:44:37;14.30;82.50
4677;DHT22;2352;48.180;11.478;2022-09-17T15:47:50;14.30;84.90
4677;DHT22;2352;48.180;11.478;2022-09-17T15:50:54;14.20;84.30
4677;DHT22;2352;48.180;11.478;2022-09-17T15:54:00;14.10;83.40
4677;DHT22;2352;48.180;11.478;2022-09-17T15:57:10;14.10;84.70
4677;DHT22;2352;48.180;11.478;2022-09-17T16:00:16;14.00;85.10
4677;DHT22;2352;48.180;11.478;2022-09-17T16:04:00;13.90;84.90
4677;DHT22;2352;48.180;11.478;2022-09-17T16:07:28;13.70;85.90
4677;DHT22;2352;48.180;11.478;2022-09-17T16:10:32;13.70;87.10
4677;DHT22;2352;48.180;11.478;2022-09-17T16:13:35;13.80;86.40
4677;DHT22;2352;48.180;11.478;2022-09-17T16:16:38;13.80;86.00
4677;DHT22;2352;48.180;11.478;2022-09-17T16:19:41;13.80;86.70
4677;DHT22;2352;48.180;11.478;2022-09-17T16:22:45;13.80;87.00
4677;DHT22;2352;48.180;11.478;2022-09-17T16:25:50;13.70;86.70
4677;DHT22;2352;48.180;11.478;2022-09-17T16:28:57;13.70;87.30
4677;DHT22;2352;48.180;11.478;2022-09-17T16:32:01;13.80;85.90
4677;DHT22;2352;48.180;11.478;2022-09-17T16:35:04;13.70;87.80
4677;DHT22;2352;48.180;11.478;2022-09-17T16:38:08;13.70;84.80
4677;DHT22;2352;48.180;11.478;2022-09-17T16:41:13;13.70;84.80
4677;DHT22;2352;48.180;11.478;2022-09-17T16:44:16;13.70;85.50
4677;DHT22;2352;48.180;11.478;2022-09-17T16:47:19;13.70;85.40
4677;DHT22;2352;48.180;11.478;2022-09-17T16:50:22;13.60;84.60
4677;DHT22;2352;48.180;11.478;2022-09-17T16:53:25;13.40;85.00
4677;DHT22;2352;48.180;11.478;2022-09-17T16:56:30;13.40;86.30
4677;DHT22;2352;48.180;11.478;2022-09-17T16:59:33;13.40;87.00
4677;DHT22;2352;48.180;11.478;2022-09-17T17:02:35;13.40;87.40
4677;DHT22;2352;48.180;11.478;2022-09-17T17:05:39;13.60;88.50
4677;DHT22;2352;48.180;11.478;2022-09-17T17:08:42;13.50;87.30
4677;DHT22;2352;48.180;11.478;2022-09-17T17:11:46;13.50;88.70
4677;DHT22;2352;48.180;11.478;2022-09-17T17:14:49;13.40;88.90
4677;DHT22;2352;48.180;11.478;2022-09-17T17:17:54;13.30;89.30
4677;DHT22;2352;48.180;11.478;2022-09-17T17:21:03;13.30;89.50
4677;DHT22;2352;48.180;11.478;2022-09-17T17:24:06;13.30;89.30
4677;DHT22;2352;48.180;11.478;2022-09-17T17:27:11;13.10;90.20
4677;DHT22;2352;48.180;11.478;2022-09-17T17:30:15;13.20;90.00
4677;DHT22;2352;48.180;11.478;2022-09-17T17:33:18;13.10;90.30
4677;DHT22;2352;48.180;11.478;2022-09-17T17:36:21;12.90;90.00
4677;DHT22;2352;48.180;11.478;2022-09-17T17:39:24;12.70;89.20
4677;DHT22;2352;48.180;11.478;2022-09-17T17:42:29;12.50;89.90
4677;DHT22;2352;48.180;11.478;2022-09-17T17:45:38;12.50;90.20
4677;DHT22;2352;48.180;11.478;2022-09-17T17:48:41;12.50;90.10
4677;DHT22;2352;48.180;11.478;2022-09-17T17:51:44;12.60;90.00
4677;DHT22;2352;48.180;11.478;2022-09-17T17:54:47;12.50;89.90
4677;DHT22;2352;48.180;11.478;2022-09-17T17:57:55;12.30;90.30
4677;DHT22;2352;48.180;11.478;2022-09-17T18:01:09;12.10;90.40
4677;DHT22;2352;48.180;11.478;2022-09-17T18:04:12;12.20;90.90
4677;DHT22;2352;48.180;11.478;2022-09-17T18:07:15;12.20;90.50
4677;DHT22;2352;48.180;11.478;2022-09-17T18:10:18;12.30;90.50
4677;DHT22;2352;48.180;11.478;2022-09-17T18:13:23;12.20;90.40
4677;DHT22;2352;48.180;11.478;2022-09-17T18:16:26;12.30;90.70
4677;DHT22;2352;48.180;11.478;2022-09-17T18:19:29;12.30;90.50
4677;DHT22;2352;48.180;11.478;2022-09-17T18:22:32;12.20;90.80
4677;DHT22;2352;48.180;11.478;2022-09-17T18:25:35;12.20;91.10
4677;DHT22;2352;48.180;11.478;2022-09-17T18:28:40;12.20;90.80
4677;DHT22;2352;48.180;11.478;2022-09-17T18:31:43;12.20;91.00
4677;DHT22;2352;48.180;11.478;2022-09-17T18:34:46;12.00;91.40
4677;DHT22;2352;48.180;11.478;2022-09-17T18:37:52;12.10;91.70
4677;DHT22;2352;48.180;11.478;2022-09-17T18:40:55;12.20;91.30
4677;DHT22;2352;48.180;11.478;2022-09-17T18:44:00;12.00;91.60
4677;DHT22;2352;48.180;11.478;2022-09-17T18:47:03;12.10;92.10
4677;DHT22;2352;48.180;11.478;2022-09-17T18:50:06;12.10;92.60
4677;DHT22;2352;48.180;11.478;2022-09-17T18:53:10;12.20;92.40
4677;DHT22;2352;48.180;11.478;2022-09-17T18:56:14;12.20;92.80
4677;DHT22;2352;48.180;11.478;2022-09-17T18:59:19;12.20;92.70
4677;DHT22;2352;48.180;11.478;2022-09-17T19:02:22;12.30;93.00
4677;DHT22;2352;48.180;11.478;2022-09-17T19:05:25;12.10;93.10
4677;DHT22;2352;48.180;11.478;2022-09-17T19:08:29;11.80;93.70
4677;DHT22;2352;48.180;11.478;2022-09-17T19:11:33;11.80;94.20
4677;DHT22;2352;48.180;11.478;2022-09-17T19:14:38;11.90;94.10
4677;DHT22;2352;48.180;11.478;2022-09-17T19:17:41;12.00;94.20
4677;DHT22;2352;48.180;11.478;2022-09-17T19:20:44;12.10;93.80
4677;DHT22;2352;48.180;11.478;2022-09-17T19:23:48;12.10;93.80
4677;DHT22;2352;48.180;11.478;2022-09-17T19:26:51;11.90;94.00
4677;DHT22;2352;48.180;11.478;2022-09-17T19:29:56;11.90;94.40
4677;DHT22;2352;48.180;11.478;2022-09-17T19:33:00;12.10;94.20
4677;DHT22;2352;48.180;11.478;2022-09-17T19:36:06;12.10;94.10
4677;DHT22;2352;48.180;11.478;2022-09-17T19:39:09;12.10;94.00
4677;DHT22;2352;48.180;11.478;2022-09-17T19:42:12;12.00;94.20
4677;DHT22;2352;48.180;11.478;2022-09-17T19:45:17;11.80;94.40
4677;DHT22;2352;48.180;11.478;2022-09-17T19:48:20;11.70;94.90
4677;DHT22;2352;48.180;11.478;2022-09-17T19:51:26;11.70;94.60
4677;DHT22;2352;48.180;11.478;2022-09-17T19:54:30;11.90;94.40
4677;DHT22;2352;48.180;11.478;2022-09-17T19:57:33;11.80;94.40
4677;DHT22;2352;48.180;11.478;2022-09-17T20:00:37;11.80;94.50
4677;DHT22;2352;48.180;11.478;2022-09-17T20:03:42;11.70;94.60
4677;DHT22;2352;48.180;11.478;2022-09-17T20:06:45;11.60;94.80
4677;DHT22;2352;48.180;11.478;2022-09-17T20:09:48;11.70;94.80
4677;DHT22;2352;48.180;11.478;2022-09-17T20:12:51;11.90;95.20
4677;DHT22;2352;48.180;11.478;2022-09-17T20:16:02;12.00;94.80
4677;DHT22;2352;48.180;11.478;2022-09-17T20:19:05;12.00;94.60
4677;DHT22;2352;48.180;11.478;2022-09-17T20:22:08;12.10;96.00
4677;DHT22;2352;48.180;11.478;2022-09-17T20:25:11;12.20;96.40